Time;durP1;ratioP1;P1;durP2;ratioP2;P2;SDS_P1;SDS_P2;PMS_P1;PMS_P2;Temp;Humidity;BMP_temperature;BMP_pressure;BME280_temperature;BME280_humidity;BME280_pressure;Samples;Min_cycle;Max_cycle;Signal;HPM_P1;HPM_P2
2022/03/06 00:01:11;;;;;;;5.03;2.00;;;;;;;-2.07;59.36;99532.94;5029327;28;20041;-49
2022/03/06 00:03:36;;;;;;;5.05;1.95;;;;;;;-2.11;59.89;99543.06;5030048;28;20401;-47
2022/03/06 00:06:02;;;;;;;7.22;2.05;;;;;;;-2.17;59.40;99539.59;5029980;28;20041;-45
2022/03/06 00:08:28;;;;;;;3.90;2.05;;;;;;;-2.23;60.24;99538.66;5029664;28;20148;-47
2022/03/06 00:10:54;;;;;;;4.70;2.25;;;;;;;-2.27;60.30;99542.84;5030202;28;20041;-47
2022/03/06 00:13:20;;;;;;;4.10;2.05;;;;;;;-2.31;60.82;99537.72;5029985;28;20045;-48
2022/03/06 00:15:46;;;;;;;4.13;1.95;;;;;;;-2.34;60.78;99541.03;5027100;28;20072;-46
2022/03/06 00:18:12;;;;;;;5.78;2.20;;;;;;;-2.36;61.10;99534.25;5030144;28;20045;-47
2022/03/06 00:20:37;;;;;;;4.90;2.28;;;;;;;-2.43;61.12;99538.38;5029123;28;20045;-46
2022/03/06 00:23:03;;;;;;;5.05;2.20;;;;;;;-2.44;61.19;99549.38;5030123;28;20112;-46
2022/03/06 00:25:29;;;;;;;6.60;2.30;;;;;;;-2.59;61.05;99527.09;5029477;28;20053;-48
2022/03/06 00:27:55;;;;;;;5.38;2.25;;;;;;;-2.52;61.17;99532.28;5028766;28;20033;-46
2022/03/06 00:30:21;;;;;;;6.18;2.17;;;;;;;-2.56;61.72;99537.31;5025219;28;20037;-50
2022/03/06 00:32:46;;;;;;;4.10;2.28;;;;;;;-2.60;61.47;99532.16;5014221;28;20034;-48
2022/03/06 00:35:12;;;;;;;5.65;2.00;;;;;;;-2.64;61.72;99525.31;5031248;28;20445;-46
2022/03/06 00:37:38;;;;;;;5.75;2.55;;;;;;;-2.67;62.06;99517.66;5033527;28;20475;-46
2022/03/06 00:40:05;;;;;;;4.35;2.50;;;;;;;-2.70;62.11;99525.22;5033230;28;20417;-46
2022/03/06 00:42:31;;;;;;;3.67;1.83;;;;;;;-2.72;62.29;99525.19;5033554;28;20477;-47
2022/03/06 00:44:57;;;;;;;4.63;2.28;;;;;;;-2.90;62.19;99503.69;5032847;28;20084;-44
2022/03/06 00:47:23;;;;;;;5.45;2.58;;;;;;;-2.77;62.46;99518.31;5033291;28;20038;-47
2022/03/06 00:49:48;;;;;;;5.20;2.05;;;;;;;-2.80;62.54;99521.66;5033251;28;20037;-48
2022/03/06 00:52:14;;;;;;;8.18;2.40;;;;;;;-2.86;62.81;99516.47;5031692;28;21607;-45
2022/03/06 00:54:40;;;;;;;5.90;2.50;;;;;;;-2.86;62.92;99523.25;5033033;28;20045;-48
2022/03/06 00:57:05;;;;;;;6.05;2.22;;;;;;;-2.92;62.83;99516.38;5032553;28;20473;-46
2022/03/06 00:59:34;;;;;;;5.97;2.65;;;;;;;-3.03;62.69;99502.63;5032104;28;20076;-48
2022/03/06 01:02:01;;;;;;;5.43;2.47;;;;;;;-2.98;63.23;99515.44;5033235;28;20390;-52
2022/03/06 01:04:27;;;;;;;4.43;2.30;;;;;;;-3.02;63.38;99512.81;5032720;28;20037;-47
2022/03/06 01:06:52;;;;;;;7.60;2.65;;;;;;;-3.04;63.14;99514.50;5031092;28;20611;-47
2022/03/06 01:09:18;;;;;;;16.98;3.35;;;;;;;-3.18;63.22;99487.09;5033099;28;20223;-48
2022/03/06 01:11:44;;;;;;;9.35;3.35;;;;;;;-3.11;63.59;99504.19;5032816;28;20137;-47
2022/03/06 01:14:09;;;;;;;9.35;3.10;;;;;;;-3.15;63.97;99510.06;5032895;28;20041;-46
2022/03/06 01:16:35;;;;;;;7.03;2.92;;;;;;;-3.17;63.53;99504.94;5031093;28;20136;-44
2022/03/06 01:19:01;;;;;;;5.55;2.55;;;;;;;-3.21;63.77;99508.28;5033079;28;20052;-46
2022/03/06 01:21:27;;;;;;;5.00;2.63;;;;;;;-3.23;63.72;99509.91;5030985;28;20056;-46
2022/03/06 01:23:53;;;;;;;4.82;2.50;;;;;;;-3.25;63.74;99516.69;5032270;28;20049;-47
2022/03/06 01:26:19;;;;;;;6.75;3.10;;;;;;;-3.27;64.01;99518.31;5014200;28;20049;-48
2022/03/06 01:28:44;;;;;;;7.40;3.20;;;;;;;-3.30;63.75;99518.28;5031222;28;20045;-48
2022/03/06 01:31:10;;;;;;;6.70;2.60;;;;;;;-3.32;64.00;99522.47;5032007;28;20052;-47
2022/03/06 01:33:36;;;;;;;12.88;2.83;;;;;;;-3.35;64.22;99522.44;5032810;28;20164;-44
2022/03/06 01:36:02;;;;;;;8.60;2.58;;;;;;;-3.37;64.54;99511.38;5030905;28;20049;-47
2022/03/06 01:38:28;;;;;;;7.15;2.92;;;;;;;-3.40;64.14;99511.28;5032470;28;20060;-49
2022/03/06 01:40:54;;;;;;;6.35;2.80;;;;;;;-3.50;64.63;99495.03;5032583;28;20045;-46
2022/03/06 01:43:20;;;;;;;12.07;2.97;;;;;;;-3.46;64.16;99503.56;5032158;28;20052;-46
2022/03/06 01:45:45;;;;;;;6.28;2.83;;;;;;;-3.61;64.66;99480.44;5031579;28;20049;-47
2022/03/06 01:48:11;;;;;;;6.38;2.83;;;;;;;-3.51;64.45;99506.00;5031676;28;20488;-48
2022/03/06 01:50:38;;;;;;;8.43;2.75;;;;;;;-3.51;64.36;99502.63;5032457;28;20067;-46
2022/03/06 01:53:06;;;;;;;3.97;2.45;;;;;;;-3.55;64.75;99499.16;5014089;28;20521;-45
2022/03/06 01:55:32;;;;;;;7.38;2.97;;;;;;;-3.78;64.60;99469.94;5032114;28;20500;-47
2022/03/06 01:58:00;;;;;;;5.32;2.60;;;;;;;-3.59;64.76;99492.31;5029613;28;20099;-46
2022/03/06 02:00:30;;;;;;;4.57;2.35;;;;;;;-3.67;64.95;99482.84;5031809;28;20063;-46
2022/03/06 02:02:55;;;;;;;7.07;2.78;;;;;;;-3.63;65.12;99495.63;5031408;28;20607;-45
2022/03/06 02:05:22;;;;;;;4.90;2.55;;;;;;;-3.65;65.08;99496.41;5030493;28;20037;-50
2022/03/06 02:07:48;;;;;;;6.97;2.25;;;;;;;-3.66;65.15;99495.56;5031625;28;20060;-48
2022/03/06 02:10:14;;;;;;;5.53;2.42;;;;;;;-3.66;64.93;99497.25;5031820;28;20029;-47
2022/03/06 02:12:41;;;;;;;6.18;2.55;;;;;;;-3.68;65.27;99492.16;5027917;28;20032;-47
2022/03/06 02:15:09;;;;;;;4.40;2.45;;;;;;;-3.67;64.94;99482.84;5045347;28;20103;-47
2022/03/06 02:17:37;;;;;;;4.13;2.20;;;;;;;-3.68;65.48;99483.66;5030813;28;20033;-46
2022/03/06 02:20:03;;;;;;;4.82;2.15;;;;;;;-3.69;65.20;99487.03;5029977;28;20064;-47
2022/03/06 02:22:31;;;;;;;6.15;2.22;;;;;;;-3.71;65.68;99486.13;5031776;28;20672;-47
2022/03/06 02:24:58;;;;;;;6.35;2.50;;;;;;;-3.73;65.62;99478.50;5030896;28;20040;-47
2022/03/06 02:27:24;;;;;;;6.75;2.55;;;;;;;-3.74;66.02;99476.78;5031654;28;20089;-47
2022/03/06 02:29:50;;;;;;;6.20;2.75;;;;;;;-3.73;65.61;99480.19;5030938;28;20033;-52
2022/03/06 02:32:18;;;;;;;6.50;2.58;;;;;;;-3.74;65.59;99476.78;5031227;28;20572;-47
2022/03/06 02:34:45;;;;;;;4.63;2.42;;;;;;;-3.75;65.77;99479.28;5046387;28;20041;-46
2022/03/06 02:37:12;;;;;;;7.45;3.03;;;;;;;-3.77;65.94;99473.34;5029960;28;20037;-45
2022/03/06 02:39:38;;;;;;;5.55;2.47;;;;;;;-3.85;66.37;99463.88;5013523;28;20100;-45
2022/03/06 02:42:04;;;;;;;5.45;2.20;;;;;;;-3.79;66.25;99467.38;5029384;28;20513;-50
2022/03/06 02:44:30;;;;;;;7.72;3.50;;;;;;;-3.80;66.63;99471.59;5029205;28;20256;-48
2022/03/06 02:46:57;;;;;;;4.90;1.98;;;;;;;-3.81;66.63;99469.00;5026442;28;20048;-47
2022/03/06 02:49:22;;;;;;;6.00;2.60;;;;;;;-3.85;66.41;99466.44;5031149;28;20119;-49
2022/03/06 02:51:48;;;;;;;5.43;2.17;;;;;;;-3.85;66.63;99461.34;5030654;28;20485;-48
2022/03/06 02:54:20;;;;;;;4.85;2.45;;;;;;;-3.93;66.36;99449.34;5026998;28;20041;-47
2022/03/06 02:56:46;;;;;;;7.05;2.60;;;;;;;-3.88;66.56;99458.75;5044142;28;20159;-47
2022/03/06 02:59:12;;;;;;;6.72;2.55;;;;;;;-3.93;66.59;99451.88;5029227;28;20496;-47
2022/03/06 03:01:41;;;;;;;7.43;2.53;;;;;;;-3.94;66.83;99447.63;5030326;28;20103;-46
2022/03/06 03:04:08;;;;;;;4.85;2.08;;;;;;;-3.89;66.72;99457.03;5030810;28;20485;-51
2022/03/06 03:06:34;;;;;;;4.18;1.80;;;;;;;-3.86;66.74;99452.00;5030900;28;20061;-47
2022/03/06 03:09:00;;;;;;;6.15;2.50;;;;;;;-3.86;66.88;99453.69;5030562;28;20037;-46
2022/03/06 03:11:25;;;;;;;5.97;2.25;;;;;;;-3.94;66.35;99451.03;5030647;28;20033;-46
2022/03/06 03:13:52;;;;;;;6.28;2.00;;;;;;;-3.88;66.87;99455.38;5030188;28;20049;-49
2022/03/06 03:16:17;;;;;;;4.82;2.08;;;;;;;-3.89;66.48;99453.66;5030639;28;20033;-45
2022/03/06 03:18:43;;;;;;;5.47;1.95;;;;;;;-3.89;66.76;99451.09;5045431;28;20084;-47
2022/03/06 03:21:09;;;;;;;6.05;2.22;;;;;;;-3.86;66.66;99453.69;5030471;28;20034;-46
2022/03/06 03:23:34;;;;;;;3.45;1.88;;;;;;;-3.91;66.36;99447.66;5029117;28;20045;-48
2022/03/06 03:26:00;;;;;;;4.82;2.30;;;;;;;-4.02;66.74;99429.69;5045650;28;20231;-46
2022/03/06 03:28:26;;;;;;;4.05;1.50;;;;;;;-3.91;66.99;99437.50;5030072;28;20120;-47
2022/03/06 03:30:52;;;;;;;3.88;1.80;;;;;;;-4.06;66.91;99422.84;5030425;28;20071;-47
2022/03/06 03:33:17;;;;;;;4.50;2.03;;;;;;;-3.98;67.59;99426.38;5045896;28;20068;-47
2022/03/06 03:35:43;;;;;;;5.07;2.25;;;;;;;-4.06;66.86;99425.38;5030117;28;20041;-48
2022/03/06 03:38:09;;;;;;;5.75;2.20;;;;;;;-4.07;67.65;99423.66;5030553;28;20048;-47
2022/03/06 03:40:35;;;;;;;9.88;2.05;;;;;;;-4.07;67.62;99421.13;5030200;28;20487;-47
2022/03/06 03:43:00;;;;;;;6.65;2.58;;;;;;;-4.07;67.72;99412.66;5029219;28;20045;-46
2022/03/06 03:45:26;;;;;;;4.72;2.17;;;;;;;-4.06;67.56;99405.06;5030096;28;20448;-45
2022/03/06 03:47:52;;;;;;;3.42;1.60;;;;;;;-4.02;67.34;99411.06;5029187;28;20130;-50
2022/03/06 03:50:17;;;;;;;5.22;2.22;;;;;;;-4.15;67.50;99389.69;5028488;28;20065;-47
2022/03/06 03:52:43;;;;;;;4.80;1.80;;;;;;;-4.08;67.10;99408.44;5030728;28;20045;-47
2022/03/06 03:55:09;;;;;;;6.25;2.13;;;;;;;-4.32;67.32;99369.06;5029624;28;20041;-46
2022/03/06 03:57:34;;;;;;;5.93;2.50;;;;;;;-4.09;67.53;99407.56;5030072;28;20505;-46
2022/03/06 04:00:00;;;;;;;8.70;2.00;;;;;;;-4.08;67.74;99401.66;5029868;28;20091;-48
2022/03/06 04:02:26;;;;;;;4.82;2.28;;;;;;;-4.21;67.60;99389.56;5030676;28;20041;-45
2022/03/06 04:04:52;;;;;;;85.55;9.15;;;;;;;-4.09;67.15;99401.63;5029497;28;20041;-45
2022/03/06 04:07:17;;;;;;;6.53;2.00;;;;;;;-4.20;67.78;99387.88;5030152;28;20147;-48
2022/03/06 04:09:43;;;;;;;6.60;2.20;;;;;;;-4.05;66.95;99408.47;5030840;28;20029;-48
2022/03/06 04:12:09;;;;;;;4.85;1.90;;;;;;;-4.05;66.97;99403.41;5034069;28;20512;-44
2022/03/06 04:14:35;;;;;;;5.38;2.17;;;;;;;-4.03;66.52;99404.28;5034087;28;20045;-45
2022/03/06 04:17:00;;;;;;;4.95;2.47;;;;;;;-4.06;67.10;99404.22;5033645;28;20106;-46
2022/03/06 04:19:26;;;;;;;3.92;1.75;;;;;;;-4.07;66.95;99395.75;5033899;28;20041;-46
2022/03/06 04:21:52;;;;;;;5.57;1.92;;;;;;;-4.05;67.27;99405.94;5033646;28;20037;-45
2022/03/06 04:24:18;;;;;;;4.13;2.00;;;;;;;-4.12;66.99;99392.25;5033799;28;20066;-44
2022/03/06 04:26:44;;;;;;;6.20;2.25;;;;;;;-4.01;66.79;99398.41;5032520;28;20056;-45
2022/03/06 04:29:09;;;;;;;4.50;2.05;;;;;;;-4.00;66.38;99400.13;5033358;28;20073;-47
2022/03/06 04:31:35;;;;;;;4.78;2.15;;;;;;;-3.97;66.50;99399.31;5033753;28;20412;-46
2022/03/06 04:34:01;;;;;;;4.05;1.92;;;;;;;-4.11;66.16;99371.13;5034134;28;20048;-47
2022/03/06 04:36:27;;;;;;;6.05;2.05;;;;;;;-4.07;66.17;99375.44;5032075;28;20568;-49
2022/03/06 04:38:52;;;;;;;5.85;2.75;;;;;;;-3.99;66.26;99390.81;5033868;28;20045;-44
2022/03/06 04:41:18;;;;;;;12.25;2.38;;;;;;;-4.03;66.31;99384.81;5031700;28;20127;-45
2022/03/06 04:43:44;;;;;;;6.53;2.42;;;;;;;-4.05;66.22;99389.03;5033180;28;20040;-47
2022/03/06 04:46:10;;;;;;;4.45;2.00;;;;;;;-4.06;66.51;99392.38;5033017;28;21873;-49
2022/03/06 04:48:36;;;;;;;4.47;2.00;;;;;;;-4.03;66.25;99394.16;5033709;28;20052;-45
2022/03/06 04:51:02;;;;;;;5.15;2.17;;;;;;;-4.14;66.01;99380.38;5032849;28;20041;-49
2022/03/06 04:53:29;;;;;;;6.00;2.33;;;;;;;-4.03;66.20;99389.88;5033067;28;20397;-52
2022/03/06 04:55:54;;;;;;;6.00;2.25;;;;;;;-4.03;65.69;99391.59;5033330;28;20067;-49
2022/03/06 04:58:20;;;;;;;6.85;2.20;;;;;;;-3.98;65.80;99383.22;5033069;28;20556;-46
2022/03/06 05:00:46;;;;;;;5.53;2.45;;;;;;;-3.95;65.66;99362.97;5032814;28;20132;-47
2022/03/06 05:03:11;;;;;;;6.60;2.78;;;;;;;-3.77;65.71;99382.78;5031495;28;20091;-48
2022/03/06 05:05:37;;;;;;;5.43;2.40;;;;;;;-3.79;65.30;99381.03;5033020;28;20045;-46
2022/03/06 05:08:03;;;;;;;6.60;2.78;;;;;;;-3.77;64.96;99382.78;5032125;28;20107;-49
2022/03/06 05:10:29;;;;;;;6.68;2.90;;;;;;;-3.69;64.73;99385.44;5032305;28;20041;-49
2022/03/06 05:12:55;;;;;;;6.43;2.60;;;;;;;-3.60;64.96;99381.38;5031057;28;20041;-52
2022/03/06 05:15:21;;;;;;;5.35;2.30;;;;;;;-3.60;64.71;99370.34;5032528;28;20128;-49
2022/03/06 05:17:47;;;;;;;6.28;2.67;;;;;;;-3.53;64.40;99380.66;5032208;28;20037;-50
2022/03/06 05:20:13;;;;;;;8.80;2.90;;;;;;;-3.41;64.39;99374.91;5031143;28;20049;-48
2022/03/06 05:22:39;;;;;;;9.95;3.10;;;;;;;-3.33;63.62;99372.47;5032490;28;20084;-51
2022/03/06 05:25:07;;;;;;;5.13;2.22;;;;;;;-3.25;63.43;99370.94;5032777;28;20067;-49
2022/03/06 05:27:32;;;;;;;7.93;2.47;;;;;;;-3.33;63.03;99362.31;5031027;28;20091;-48
2022/03/06 05:29:58;;;;;;;7.15;2.90;;;;;;;-3.19;62.64;99363.41;5032007;28;20037;-48
2022/03/06 05:32:24;;;;;;;6.68;2.45;;;;;;;-3.11;62.39;99372.84;5032039;28;20103;-47
2022/03/06 05:34:49;;;;;;;13.82;2.58;;;;;;;-3.05;62.16;99369.53;5031650;28;20047;-49
2022/03/06 05:37:15;;;;;;;5.28;2.70;;;;;;;-3.03;61.79;99347.53;5031233;28;20033;-49
2022/03/06 05:39:42;;;;;;;7.95;2.97;;;;;;;-2.78;61.69;99359.78;5031957;28;20505;-48
2022/03/06 05:42:07;;;;;;;7.40;3.05;;;;;;;-2.65;61.02;99351.44;5032023;28;20068;-51
2022/03/06 05:44:33;;;;;;;7.80;2.90;;;;;;;-2.50;60.46;99357.56;5031440;28;20045;-52
2022/03/06 05:46:59;;;;;;;10.32;3.05;;;;;;;-2.27;59.85;99357.00;5031528;28;20088;-50
2022/03/06 05:49:25;;;;;;;11.95;3.53;;;;;;;-1.83;59.16;99347.28;5032033;28;20041;-48
2022/03/06 05:51:51;;;;;;;7.85;3.00;;;;;;;-1.25;57.75;99350.31;5032465;28;20037;-49
2022/03/06 05:54:17;;;;;;;5.75;2.85;;;;;;;-0.58;55.33;99343.09;5031612;28;20076;-47
2022/03/06 05:56:42;;;;;;;9.13;3.38;;;;;;;0.10;53.84;99345.03;5031487;28;20056;-49
2022/03/06 05:59:08;;;;;;;6.93;2.25;;;;;;;0.59;50.93;99345.91;5031600;28;20044;-50
2022/03/06 06:01:34;;;;;;;9.98;3.13;;;;;;;1.27;50.43;99348.38;5051553;28;20107;-48
2022/03/06 06:04:00;;;;;;;7.50;2.78;;;;;;;2.02;47.73;99347.22;5031574;28;20049;-48
2022/03/06 06:06:27;;;;;;;6.80;2.95;;;;;;;2.85;46.65;99332.09;5031477;28;20064;-48
2022/03/06 06:08:54;;;;;;;6.72;3.08;;;;;;;3.51;45.29;99338.22;5031748;28;20053;-47
2022/03/06 06:11:20;;;;;;;7.47;3.42;;;;;;;4.26;43.45;99332.97;5048485;28;20055;-47
2022/03/06 06:13:46;;;;;;;10.88;3.38;;;;;;;4.55;41.72;99332.53;5031121;28;20579;-47
2022/03/06 06:16:12;;;;;;;6.72;3.17;;;;;;;4.31;43.03;99333.75;5033761;28;20424;-46
2022/03/06 06:18:37;;;;;;;7.22;3.38;;;;;;;4.68;42.10;99327.16;5038834;28;20060;-48
2022/03/06 06:21:04;;;;;;;7.88;3.78;;;;;;;5.63;40.65;99299.66;5031357;28;20049;-49
2022/03/06 06:23:29;;;;;;;9.50;3.53;;;;;;;6.64;38.86;99330.94;5031891;28;20548;-51
2022/03/06 06:25:58;;;;;;;10.55;3.60;;;;;;;7.27;36.81;99326.75;5031691;28;20136;-49
2022/03/06 06:28:24;;;;;;;11.57;4.32;;;;;;;7.75;35.69;99316.78;5044472;28;20042;-48
2022/03/06 06:30:50;;;;;;;5.75;3.03;;;;;;;7.91;33.43;99330.97;5030824;28;20398;-46
2022/03/06 06:33:15;;;;;;;10.63;4.03;;;;;;;7.98;34.83;99319.56;5031014;28;20079;-49
2022/03/06 06:35:41;;;;;;;11.27;4.00;;;;;;;8.70;33.65;99310.41;5025725;28;20131;-46
2022/03/06 06:38:07;;;;;;;12.13;4.38;;;;;;;9.42;31.86;99316.59;5027831;28;20069;-47
2022/03/06 06:40:33;;;;;;;8.80;4.05;;;;;;;9.38;30.76;99317.59;5028974;28;20092;-46
2022/03/06 06:43:00;;;;;;;7.22;3.53;;;;;;;8.89;31.03;99314.09;5030186;28;20037;-46
2022/03/06 06:45:25;;;;;;;9.85;3.97;;;;;;;8.71;31.63;99314.69;5029528;28;20041;-46
2022/03/06 06:47:51;;;;;;;14.75;4.60;;;;;;;9.28;30.90;99314.47;5031046;28;20501;-46
2022/03/06 06:50:17;;;;;;;8.50;3.95;;;;;;;9.70;30.95;99312.09;5038331;28;20049;-46
2022/03/06 06:52:43;;;;;;;9.18;4.13;;;;;;;10.16;29.34;99303.44;5031636;28;20044;-47
2022/03/06 06:55:09;;;;;;;8.85;4.38;;;;;;;10.65;29.66;99306.72;5029254;28;20037;-46
2022/03/06 06:57:34;;;;;;;12.27;4.50;;;;;;;11.66;28.78;99307.53;5030302;28;20048;-46
2022/03/06 07:00:01;;;;;;;9.20;3.60;;;;;;;11.71;27.16;99307.34;5028267;28;20037;-48
2022/03/06 07:02:27;;;;;;;11.05;4.57;;;;;;;11.51;28.01;99304.78;5035561;28;20434;-46
2022/03/06 07:04:52;;;;;;;14.05;4.43;;;;;;;11.12;27.04;99302.13;5030200;28;20037;-46
2022/03/06 07:07:18;;;;;;;9.63;4.00;;;;;;;10.78;27.63;99293.13;5024274;28;20061;-48
2022/03/06 07:09:44;;;;;;;13.25;4.45;;;;;;;11.61;27.30;99304.31;5027285;28;20579;-47
2022/03/06 07:12:11;;;;;;;11.50;3.78;;;;;;;12.60;26.50;99295.31;5029873;28;20045;-45
2022/03/06 07:14:37;;;;;;;17.02;4.13;;;;;;;13.39;25.21;99290.50;5029672;28;20041;-45
2022/03/06 07:17:03;;;;;;;8.65;3.22;;;;;;;13.08;24.59;99293.81;5029575;28;20056;-47
2022/03/06 07:19:28;;;;;;;6.18;2.55;;;;;;;13.28;24.45;99285.81;5011954;28;20049;-47
2022/03/06 07:21:54;;;;;;;6.30;2.63;;;;;;;13.91;24.32;99292.03;5028866;28;20041;-47
2022/03/06 07:24:20;;;;;;;4.43;2.00;;;;;;;14.04;23.70;99288.72;5028848;28;20030;-48
2022/03/06 07:26:46;;;;;;;5.22;2.60;;;;;;;14.25;23.27;99298.00;5030403;28;20042;-49
2022/03/06 07:29:11;;;;;;;5.65;2.28;;;;;;;14.24;22.82;99284.09;5030463;28;20088;-48
2022/03/06 07:31:37;;;;;;;5.55;2.40;;;;;;;14.69;22.55;99285.94;5028246;28;20443;-51
2022/03/06 07:34:03;;;;;;;5.20;2.10;;;;;;;14.84;21.63;99278.97;5030031;28;20049;-58
2022/03/06 07:36:28;;;;;;;7.28;2.65;;;;;;;15.40;21.61;99282.59;5026399;28;20033;-50
2022/03/06 07:38:54;;;;;;;8.25;2.55;;;;;;;15.71;21.57;99282.44;5020030;28;20091;-50
2022/03/06 07:41:20;;;;;;;4.03;2.38;;;;;;;15.21;21.59;99283.72;5042405;28;20044;-55
2022/03/06 07:43:45;;;;;;;7.35;2.78;;;;;;;14.87;21.69;99278.78;5030930;28;20045;-52
2022/03/06 07:46:11;;;;;;;5.65;1.90;;;;;;;13.96;22.37;99266.50;5033803;28;20120;-49
2022/03/06 07:48:37;;;;;;;6.68;2.35;;;;;;;13.60;22.92;99262.41;5033503;28;20048;-41
2022/03/06 07:51:03;;;;;;;4.15;2.63;;;;;;;14.23;22.46;99258.91;5026808;28;20408;-46
2022/03/06 07:53:29;;;;;;;4.65;2.67;;;;;;;14.14;22.48;99253.31;5032866;28;20049;-46
2022/03/06 07:55:55;;;;;;;5.32;2.30;;;;;;;14.00;22.71;99248.84;5032150;28;20045;-46
2022/03/06 07:58:21;;;;;;;3.88;2.20;;;;;;;12.96;23.16;99229.19;5033618;28;20531;-49
2022/03/06 08:00:46;;;;;;;5.43;2.33;;;;;;;12.44;24.29;99233.56;5033030;28;20084;-52
2022/03/06 08:03:12;;;;;;;4.53;1.85;;;;;;;12.03;24.29;99244.22;5033560;28;20045;-49
2022/03/06 08:05:38;;;;;;;6.43;2.55;;;;;;;12.34;24.39;99245.34;5033093;28;20523;-49
2022/03/06 08:08:04;;;;;;;6.45;2.67;;;;;;;13.02;23.87;99231.47;5031374;28;20525;-50
2022/03/06 08:10:30;;;;;;;4.97;2.72;;;;;;;13.42;23.36;99233.72;5031949;28;20421;-54
2022/03/06 08:12:56;;;;;;;5.75;2.60;;;;;;;13.11;23.89;99218.81;5029423;28;20044;-47
2022/03/06 08:15:22;;;;;;;7.07;2.63;;;;;;;12.72;24.14;99226.03;5031991;28;20049;-42
2022/03/06 08:17:47;;;;;;;5.60;2.70;;;;;;;12.93;23.75;99217.13;5032220;28;20398;-43
2022/03/06 08:20:14;;;;;;;5.40;2.05;;;;;;;13.36;23.76;99213.16;5048328;28;20607;-43
2022/03/06 08:22:39;;;;;;;5.05;2.30;;;;;;;13.92;22.70;99210.06;5030903;28;20508;-49
2022/03/06 08:25:06;;;;;;;10.75;2.45;;;;;;;15.01;21.94;99200.28;5033683;28;20068;-49
2022/03/06 08:27:32;;;;;;;3.92;2.03;;;;;;;15.70;21.08;99201.31;5026266;28;20125;-52
2022/03/06 08:29:59;;;;;;;3.78;1.77;;;;;;;15.15;20.98;99196.81;5032135;28;20033;-54
2022/03/06 08:32:24;;;;;;;7.90;2.15;;;;;;;15.55;20.88;99192.63;5020403;28;20078;-52
2022/03/06 08:34:53;;;;;;;3.38;1.55;;;;;;;15.56;20.54;99183.81;5022177;28;20067;-55
2022/03/06 08:37:20;;;;;;;4.63;1.50;;;;;;;14.54;21.34;99181.31;5031898;28;20069;-53
2022/03/06 08:39:49;;;;;;;4.40;1.60;;;;;;;14.11;21.58;99183.75;5031089;28;20045;-62
2022/03/06 08:42:15;;;;;;;2.15;1.55;;;;;;;14.09;21.52;99180.38;5035939;28;20106;-59
2022/03/06 08:44:41;;;;;;;6.68;1.50;;;;;;;14.68;21.28;99171.72;5053397;28;20036;-59
2022/03/06 08:47:08;;;;;;;3.40;1.92;;;;;;;14.92;21.29;99177.25;5037846;28;20436;-61
2022/03/06 08:49:34;;;;;;;2.22;1.23;;;;;;;15.12;21.17;99169.06;5032336;28;20389;-59
2022/03/06 08:52:00;;;;;;;7.55;1.80;;;;;;;15.98;20.17;99167.16;5033434;28;20094;-61
2022/03/06 08:54:25;;;;;;;6.70;2.15;;;;;;;16.34;20.19;99162.13;5033401;28;20041;-60
2022/03/06 08:56:51;;;;;;;6.85;1.77;;;;;;;16.34;19.62;99163.91;5031539;28;20070;-60
2022/03/06 08:59:21;;;;;;;5.75;2.10;;;;;;;16.16;19.63;99173.00;5031843;28;20092;-60
2022/03/06 09:01:47;;;;;;;2.42;1.40;;;;;;;16.20;19.36;99149.09;5032469;28;20402;-60
2022/03/06 09:04:13;;;;;;;8.13;1.88;;;;;;;16.08;19.62;99158.59;5032035;28;20049;-59
2022/03/06 09:06:40;;;;;;;4.13;1.98;;;;;;;16.22;19.52;99147.22;5032508;28;20144;-60
2022/03/06 09:09:06;;;;;;;3.95;1.48;;;;;;;16.03;19.19;99142.31;5031182;28;20057;-60
2022/03/06 09:11:32;;;;;;;2.05;1.30;;;;;;;15.66;19.59;99145.63;5033101;28;20522;-60
2022/03/06 09:13:59;;;;;;;4.45;1.90;;;;;;;15.66;19.65;99107.16;5032785;28;20041;-59
2022/03/06 09:16:25;;;;;;;4.00;1.60;;;;;;;16.32;19.40;99118.59;5032881;28;20420;-61
2022/03/06 09:18:51;;;;;;;4.38;1.80;;;;;;;16.17;19.79;99115.19;5031869;28;20041;-58
2022/03/06 09:21:17;;;;;;;4.65;1.70;;;;;;;16.51;19.58;99121.66;5032518;28;20056;-60
2022/03/06 09:23:43;;;;;;;6.95;2.00;;;;;;;17.04;19.06;99115.38;5032523;28;20139;-60
2022/03/06 09:26:09;;;;;;;5.10;2.00;;;;;;;17.46;18.67;99108.03;5031833;28;20096;-60
2022/03/06 09:28:35;;;;;;;14.45;2.38;;;;;;;15.58;19.22;99098.97;5031479;28;20045;-61
2022/03/06 09:31:00;;;;;;;4.15;1.50;;;;;;;15.06;20.01;99109.22;5031186;28;20041;-60
2022/03/06 09:33:26;;;;;;;6.07;2.08;;;;;;;13.92;20.95;99099.50;5031705;28;20060;-60
2022/03/06 09:35:52;;;;;;;3.50;1.75;;;;;;;13.76;21.15;99107.38;5032961;28;20501;-62
2022/03/06 09:38:18;;;;;;;3.42;1.73;;;;;;;12.19;22.09;99101.00;5031307;28;20083;-61
2022/03/06 09:40:44;;;;;;;3.78;1.50;;;;;;;11.54;22.86;99093.75;5031233;28;20505;-61
2022/03/06 09:43:15;;;;;;;3.83;2.08;;;;;;;11.27;23.45;99088.09;5014463;28;20037;-60
2022/03/06 09:45:42;;;;;;;7.05;2.50;;;;;;;11.26;23.43;99082.03;5032499;28;20079;-60
2022/03/06 09:48:09;;;;;;;15.70;3.10;;;;;;;11.62;23.26;99084.66;5060757;28;20111;-60
2022/03/06 09:50:34;;;;;;;4.97;1.73;;;;;;;10.69;24.62;99074.28;5064610;28;20056;-62
2022/03/06 09:53:00;;;;;;;6.03;2.10;;;;;;;10.71;24.91;99068.13;5062532;28;20037;-61
2022/03/06 09:55:27;;;;;;;3.35;1.65;;;;;;;10.51;24.73;99070.75;5064755;28;20068;-61
2022/03/06 09:57:54;;;;;;;6.15;1.88;;;;;;;10.19;25.24;99082.53;5064210;28;20045;-61
2022/03/06 10:00:20;;;;;;;5.43;2.38;;;;;;;11.01;24.66;99076.28;5064123;28;20417;-60
2022/03/06 10:02:59;;;;;;;4.15;2.08;;;;;;;12.52;23.27;99061.91;5052131;28;20046;-60
2022/03/06 10:05:26;;;;;;;6.22;1.90;;;;;;;13.22;22.19;99063.41;5048005;28;20092;-61
2022/03/06 10:07:52;;;;;;;3.97;1.63;;;;;;;12.45;22.59;99047.53;5031375;28;20061;-60
2022/03/06 10:10:35;;;;;;;6.55;1.98;;;;;;;12.70;22.60;99055.75;5014596;28;20044;-60
2022/03/06 10:13:26;;;;;;;4.47;2.00;;;;;;;12.68;22.36;99050.63;4997669;28;20537;-60
2022/03/06 10:16:07;;;;;;;4.68;1.73;;;;;;;12.23;23.00;99051.25;5031764;28;20065;-61
2022/03/06 10:18:36;;;;;;;6.15;1.92;;;;;;;11.73;23.58;99045.09;5031586;28;20037;-61
2022/03/06 10:21:10;;;;;;;4.32;1.83;;;;;;;12.44;23.33;99032.81;5031745;28;20079;-62
2022/03/06 10:23:36;;;;;;;6.30;1.70;;;;;;;13.17;22.18;99036.72;5012161;28;20173;-60
2022/03/06 10:26:07;;;;;;;5.85;2.00;;;;;;;13.32;22.29;99030.66;4994666;28;20034;-61
2022/03/06 10:28:50;;;;;;;5.57;1.60;;;;;;;12.93;22.11;99013.59;4977817;28;20077;-61
2022/03/06 10:31:17;;;;;;;3.92;1.63;;;;;;;12.38;22.43;99018.34;4995913;28;20042;-61
2022/03/06 10:33:59;;;;;;;5.82;1.60;;;;;;;12.90;21.92;99013.78;5031753;28;20038;-60
2022/03/06 10:36:35;;;;;;;2.30;1.33;;;;;;;12.74;21.79;99012.94;5030345;28;20037;-63
2022/03/06 10:39:03;;;;;;;2.47;1.30;;;;;;;12.25;22.25;99002.47;5030852;28;20052;-61
2022/03/06 10:41:38;;;;;;;5.63;1.40;;;;;;;12.27;22.33;98995.44;5031161;28;20044;-57
2022/03/06 10:44:06;;;;;;;3.92;1.42;;;;;;;12.67;21.97;99001.97;5027383;28;20492;-63
2022/03/06 10:46:34;;;;;;;3.75;1.17;;;;;;;11.96;22.34;98977.09;5030061;28;20424;-65
2022/03/06 10:49:12;;;;;;;3.08;1.20;;;;;;;10.70;22.96;98993.63;5027020;28;20045;-62
2022/03/06 10:51:43;;;;;;;3.25;1.20;;;;;;;9.83;24.42;98995.78;5023419;28;20402;-67
2022/03/06 10:54:10;;;;;;;5.53;1.15;;;;;;;9.20;24.81;98993.16;5028125;28;20562;-63
2022/03/06 10:56:36;;;;;;;3.85;1.45;;;;;;;8.63;25.51;98990.22;5012025;28;20033;-63
2022/03/06 10:59:04;;;;;;;5.35;1.23;;;;;;;8.14;26.27;98967.84;5030550;28;20069;-62
2022/03/06 11:01:31;;;;;;;9.63;1.30;;;;;;;7.94;26.80;98984.91;5029652;28;20496;-64
2022/03/06 11:04:01;;;;;;;2.10;0.93;;;;;;;7.61;26.93;98978.31;5013528;28;20061;-68
2022/03/06 11:06:28;;;;;;;4.55;1.35;;;;;;;7.58;27.42;98970.66;5027732;28;20521;-69
2022/03/06 11:08:54;;;;;;;3.60;1.42;;;;;;;7.09;28.03;98956.75;5030831;28;20072;-65
2022/03/06 11:11:21;;;;;;;0.95;0.40;;;;;;;6.74;28.75;98957.00;5029513;28;20528;-63
2022/03/06 11:13:47;;;;;;;1.67;1.40;;;;;;;6.57;29.23;98954.06;5029513;28;20140;-66
2022/03/06 11:16:13;;;;;;;3.67;0.90;;;;;;;6.95;28.96;98937.41;5010210;28;20123;-62
2022/03/06 11:18:38;;;;;;;2.72;1.10;;;;;;;7.91;28.29;98937.56;5030207;28;20091;-61
2022/03/06 11:21:04;;;;;;;1.98;1.25;;;;;;;8.57;27.76;98942.06;5029027;28;20490;-60
2022/03/06 11:23:33;;;;;;;3.58;1.25;;;;;;;9.90;26.41;98924.47;5012879;28;20048;-59
2022/03/06 11:26:17;;;;;;;2.50;1.08;;;;;;;10.68;24.82;98912.25;5025656;28;20592;-59
2022/03/06 11:29:10;;;;;;;3.65;1.20;;;;;;;11.57;24.22;98911.38;5016644;28;20093;-53
2022/03/06 11:32:03;;;;;;;4.13;1.10;;;;;;;11.36;23.90;98908.94;5011096;28;20057;-46